Database: COMPET-N - COOP - 3PL - 4PL - CNDOOM

WAD: Doom | Doom 2 | TNT | Plutonia | AV | HR | Scythe | MM | MM2 | Requiem | CE
Category: speed | nmare | max | nm100s | tyson | pacifist | fast | respawn | nomo | misc | built | all
Highscore: ALL | IWAD | PWAD | Country | Continent

< Previous map       Next map >
Remove: wad | map | category | player | allMAP32
MapPlayerTimeDateFilenameCommentsDL
MAP32: Dances with DemonsRadek Pecka27.002004-08-05m232-027.zip - 212
MAP32: Dances with DemonsAdam Hegyi28.002001-06-16m232-028.zip - 146
MAP32: Dances with DemonsDoug Merrill35.002001-06-10m232-035.zip - 126
MAP32: Dances with DemonsDrew DeVore29.002002-05-17m232n029.zip - 232
MAP32: Dances with DemonsErik Alm32.002002-05-17m232n032.zip - 128
MAP32: Dances with DemonsErik Alm37.002002-05-17m232n037.zip - 126
MAP32: Dances with DemonsErik Alm1:12.002002-05-16m232n112.zip - 105
MAP32: Dances with DemonsJim Leonard1:55.002002-04-12m232n155.zip - 133
MAP32: Dances with DemonsEugene Kapustin1:30.002011-11-02m232-130.zip - 225
MAP32: Dances with DemonsEugene Kapustin1:39.002007-04-20m232-139.zip - 180
MAP32: Dances with DemonsRadek Pecka1:40.002004-04-14m232-140.zip - 121
MAP32: Dances with DemonsEugene Kapustin1:43.002004-04-05m232-143.zip - 143
MAP32: Dances with DemonsRadek Pecka1:53.002002-09-10m232-153.zip - 103
MAP32: Dances with DemonsAnders Johnsen2:10.001998-05-12m232-210.zip - 99
MAP32: Dances with DemonsVdgg 7:25.002011-08-26m232t725.zip - 238
MAP32: Dances with DemonsVdgg 10:29.002011-01-13m2321029.zip - 181
MAP32: Dances with DemonsVdgg 12:24.002010-10-07m2321224.zip - 161
MAP32: Dances with DemonsVdgg 17:08.002010-01-17m2321708.zip - 170
MAP32: Dances with DemonsJim Leonard17:35.002003-01-11m2321735.zip - 114
MAP32: Dances with DemonsRadek Pecka27.002004-08-05m232-027.zip - 221
MAP32: Dances with DemonsAdam Hegyi28.002001-06-16m232-028.zip - 116
MAP32: Dances with DemonsEugene Kapustin1:33.002015-01-18m232f133.zip - 260
MAP32: Dances with DemonsEugene Kapustin1:44.002011-11-05m232f144.zip - 168
MAP32: Dances with DemonsEugene Kapustin1:57.002011-11-02m232f157.zip - 148
MAP32: Dances with DemonsEugene Kapustin2:00.002010-01-03m232f200.zip - 165
MAP32: Dances with DemonsEugene Kapustin2:06.002004-04-05m232f206.zip - 145
MAP32: Dances with DemonsDoug Merrill3:19.002001-05-29m232f319.zip - 92
MAP32: Dances with DemonsDoug Merrill1:16.002001-06-10m232r116.zip - 203
Remove: wad | map | category | player | all